createdAt,value
2022-11-09T18:25:41.960Z,101194.31
2022-11-09T18:28:29.814Z,101201.56
2022-11-09T18:31:17.172Z,101193.59
2022-11-09T18:34:05.635Z,101189.88
2022-11-09T18:36:54.152Z,101197.00
2022-11-09T18:39:41.675Z,101206.69
2022-11-09T18:42:29.102Z,101204.97
2022-11-09T18:45:17.777Z,101203.38
2022-11-09T18:48:05.204Z,101197.00
2022-11-09T18:50:57.126Z,101189.47
2022-11-09T18:53:45.655Z,101206.16
2022-11-09T18:56:33.666Z,101209.78
2022-11-09T18:59:20.950Z,101211.81
2022-11-09T19:02:13.115Z,101217.13
2022-11-09T19:05:00.557Z,101205.84
2022-11-09T19:07:50.050Z,101203.19
2022-11-09T19:10:38.741Z,101206.56
2022-11-09T19:13:26.705Z,101196.28
2022-11-09T19:16:14.854Z,101205.31
2022-11-09T19:19:02.825Z,101211.50
2022-11-09T19:21:54.876Z,101209.88
2022-11-09T19:24:42.948Z,101211.69
2022-11-09T19:27:30.677Z,101215.44
2022-11-09T19:30:18.615Z,101215.66
2022-11-09T19:33:07.096Z,101219.03
2022-11-09T19:36:23.103Z,101219.69
2022-11-09T19:39:02.376Z,101216.91
2022-11-09T19:41:50.068Z,101213.28
2022-11-09T19:44:37.330Z,101213.19
2022-11-09T19:47:25.191Z,101210.75
2022-11-09T19:50:12.310Z,101212.13
2022-11-09T19:53:00.074Z,101207.53
2022-11-09T19:55:47.187Z,101204.38
2022-11-09T19:58:35.844Z,101211.34
2022-11-09T20:01:23.362Z,101213.28
2022-11-09T20:04:11.245Z,101198.66
2022-11-09T20:06:58.401Z,101217.75
2022-11-09T20:09:46.388Z,101229.22
2022-11-09T20:12:52.077Z,101218.84
2022-11-09T20:15:39.829Z,101220.50
2022-11-09T20:18:26.718Z,101227.75
2022-11-09T20:21:14.223Z,101225.44
2022-11-09T20:24:01.569Z,101232.56
2022-11-09T20:26:48.936Z,101230.00
2022-11-09T20:29:36.666Z,101231.81
2022-11-09T20:32:24.588Z,101233.50
2022-11-09T20:35:12.637Z,101231.19
2022-11-09T20:38:01.936Z,101233.00
2022-11-09T20:40:58.840Z,101236.72
2022-11-09T20:43:48.040Z,101239.47
2022-11-09T20:46:36.847Z,101215.50
2022-11-09T20:49:24.635Z,101230.56
2022-11-09T20:52:12.015Z,101239.47
2022-11-09T20:55:00.799Z,101228.53
2022-11-09T20:57:48.576Z,101245.66
2022-11-09T21:00:38.246Z,101244.78
2022-11-09T21:03:28.326Z,101246.69
2022-11-09T21:06:17.776Z,101239.41
2022-11-09T21:09:05.938Z,101241.19
2022-11-09T21:12:11.819Z,101248.13
2022-11-09T21:14:59.247Z,101260.22
2022-11-09T21:17:48.124Z,101259.25
2022-11-09T21:20:36.016Z,101255.31
2022-11-09T21:23:24.834Z,101253.50
2022-11-09T21:26:30.654Z,101253.00
2022-11-09T21:29:42.333Z,101257.75
2022-11-09T21:32:30.967Z,101251.81
2022-11-09T21:35:18.652Z,101243.25
2022-11-09T21:38:05.668Z,101244.38
2022-11-09T21:40:53.090Z,101248.75
2022-11-09T21:43:40.271Z,101248.00
2022-11-09T21:46:27.711Z,101243.78
2022-11-09T21:49:14.830Z,101232.72
2022-11-09T21:52:02.961Z,101242.91
2022-11-09T21:54:50.253Z,101242.16
2022-11-09T21:57:37.619Z,101241.41
2022-11-09T22:00:24.840Z,101230.91
2022-11-09T22:03:14.027Z,101227.41
2022-11-09T22:06:01.231Z,101227.41
2022-11-09T22:08:48.829Z,101231.88
2022-11-09T22:11:54.481Z,101225.72
2022-11-09T22:15:00.348Z,101228.47
2022-11-09T22:17:48.639Z,101224.84
2022-11-09T22:20:55.229Z,101222.19
2022-11-09T22:23:42.659Z,101221.47
2022-11-09T22:26:31.931Z,101219.78
2022-11-09T22:29:19.199Z,101216.38
2022-11-09T22:32:06.913Z,101225.94
2022-11-09T22:34:54.020Z,101230.41
2022-11-09T22:37:43.357Z,101210.88
2022-11-09T22:40:30.588Z,101226.16
2022-11-09T22:43:18.324Z,101219.97
2022-11-09T22:46:14.682Z,101230.59
2022-11-09T22:49:02.118Z,101210.13
2022-11-09T22:51:49.072Z,101211.28
2022-11-09T22:54:36.361Z,101216.69
2022-11-09T22:57:23.538Z,101195.38
2022-11-09T23:00:15.388Z,101205.56
2022-11-09T23:03:02.317Z,101210.63
2022-11-09T23:05:49.630Z,101212.34
2022-11-09T23:08:38.108Z,101216.81
2022-11-09T23:11:25.862Z,101218.72
2022-11-09T23:14:13.201Z,101213.41
2022-11-09T23:17:00.531Z,101216.91
2022-11-09T23:19:47.753Z,101223.16
2022-11-09T23:22:36.230Z,101208.50
2022-11-09T23:25:41.803Z,101220.50
2022-11-09T23:28:33.000Z,101206.09
2022-11-09T23:31:24.543Z,101215.53
2022-11-09T23:34:11.968Z,101217.13
2022-11-09T23:36:59.311Z,101217.34
2022-11-09T23:39:46.750Z,101219.03
2022-11-09T23:42:33.640Z,101220.00
2022-11-09T23:45:21.346Z,101220.94
2022-11-09T23:48:17.049Z,101209.81
2022-11-09T23:51:04.879Z,101225.31
2022-11-09T23:53:52.156Z,101227.97
2022-11-09T23:56:39.328Z,101228.91
2022-11-09T23:59:26.519Z,101226.34
